Superferry II — SWKV — position and weather

sailwx.info

Track history (hours):
 
Tides and Currents Weather Stations Pressure Air Temp Water Temp Dewpoint Dewpoint Depression Visibility Wind Speed Wind Dir Waves Ship Positions

Superferry II

Last reported at 2014-Dec-19 15:23 UTC. Time now 2014-Dec-20 08:45 UTC.
Position N 37°56' E 024°25'.

Length 122 m; draft 4.7 m.

Type: Passenger vessel. MMSI: 237001000.

Date/timePositionNaut miles runAvg speedWind from/ knotsBaromVisibWave heightAir tempDewpointWater temp
2014-Dec-19 15:23N 37°56' E 024°25'2513.7
2014-Dec-19 13:33N 37°44' E 024°52'1817.6
2014-Dec-19 12:33N 37°32' E 025°09'9 9.1
2014-Dec-19 11:33N 37°28' E 025°19'0 0.0
2014-Dec-19 10:33N 37°28' E 025°19'1010.0
2014-Dec-19 09:33N 37°32' E 025°08'42 2.3
2014-Dec-18 15:25N 37°56' E 024°25'2513.5
2014-Dec-18 13:33N 37°44' E 024°52'1816.9
2014-Dec-18 12:31N 37°32' E 025°09'9 9.2
2014-Dec-18 11:31N 37°28' E 025°19'0 0.0
2014-Dec-18 10:32N 37°28' E 025°19'10 9.8
2014-Dec-18 09:33N 37°32' E 025°08'39 2.1
2014-Dec-17 15:30N 37°54' E 024°29'2412.2
2014-Dec-17 13:32N 37°42' E 024°54'1515.6
2014-Dec-17 12:33N 37°32' E 025°09'9 9.1
2014-Dec-17 11:33N 37°28' E 025°19'1 0.5
2014-Dec-17 10:33N 37°28' E 025°19'1313.0
2014-Dec-17 09:33N 37°35' E 025°04'38 2.1
2014-Dec-16 15:23N 37°56' E 024°25'2413.3
2014-Dec-16 13:33N 37°44' E 024°52'1818.2
2014-Dec-16 12:34N 37°32' E 025°09'9 9.1
2014-Dec-16 11:33N 37°28' E 025°19'0 0.0
2014-Dec-16 10:33N 37°28' E 025°19'1313.1
2014-Dec-16 09:33N 37°34' E 025°05'5115.7
2014-Dec-16 06:17N 37°60' E 024°08'6 0.9
2014-Dec-15 23:05N 38°01' E 024°01'1 0.1
2014-Dec-15 16:24N 38°01' E 024°02'1618.7
2014-Dec-15 15:33N 37°56' E 024°21'2013.5
2014-Dec-15 14:06N 37°51' E 024°45'1119.0
2014-Dec-15 13:30N 37°42' E 024°54'1516.2
2014-Dec-15 12:33N 37°32' E 025°09'9 9.1
2014-Dec-15 11:33N 37°28' E 025°19'0 0.0
2014-Dec-15 10:33N 37°28' E 025°19'1110.5
2014-Dec-15 09:32N 37°33' E 025°07'4816.2
2014-Dec-15 06:33N 37°58' E 024°15'12 1.2
2014-Dec-14 20:26N 38°01' E 024°01'0 0.0
2014-Dec-14 19:21N 38°01' E 024°01'2 0.6
2014-Dec-14 16:26N 38°01' E 024°03'1818.4
2014-Dec-14 15:26N 37°55' E 024°25'2513.2
2014-Dec-14 13:33N 37°44' E 024°52'1817.6
2014-Dec-14 12:33N 37°32' E 025°09'9 9.1
2014-Dec-14 11:33N 37°28' E 025°19'0 0.0
2014-Dec-14 10:33N 37°28' E 025°19'1010.4
2014-Dec-14 09:33N 37°32' E 025°08'5216.5
2014-Dec-14 06:22N 37°59' E 024°10'6 0.5
2014-Dec-13 16:23N 38°01' E 024°02'1818.6
2014-Dec-13 15:23N 37°56' E 024°25'2813.9
2014-Dec-13 13:22N 37°41' E 024°55'1417.4
2014-Dec-13 12:33N 37°32' E 025°09'9 9.1
2014-Dec-13 11:33N 37°28' E 025°19'0 0.4
2014-Dec-13 10:31N 37°28' E 025°19'1212.5
2014-Dec-13 09:34N 37°34' E 025°06'4715.7
2014-Dec-13 06:32N 37°58' E 024°14'10 0.7
2014-Dec-12 16:28N 38°01' E 024°02'1817.9
2014-Dec-12 15:27N 37°56' E 024°25'2714.3
2014-Dec-12 13:33N 37°42' E 024°54'1515.4
2014-Dec-12 12:33N 37°32' E 025°09'9 9.1
2014-Dec-12 11:33N 37°28' E 025°19'0 0.0
2014-Dec-12 10:33N 37°28' E 025°19'1212.2
2014-Dec-12 09:33N 37°33' E 025°06'4715.6
2014-Dec-12 06:32N 37°58' E 024°15'10 0.7
2014-Dec-11 16:33N 38°01' E 024°03'1818.3
2014-Dec-11 15:33N 37°55' E 024°26'2613.1
2014-Dec-11 13:33N 37°42' E 024°54'1515.7
2014-Dec-11 12:34N 37°32' E 025°09'9 9.1
2014-Dec-11 11:33N 37°28' E 025°19'0 0.0
2014-Dec-11 10:33N 37°28' E 025°19'1211.7
2014-Dec-11 09:33N 37°33' E 025°06'3415.3
2014-Dec-11 07:19N 37°54' E 024°32'1418.8
2014-Dec-11 06:33N 37°58' E 024°15'1111.0
2014-Dec-11 05:31N 38°01' E 024°01'0 0.0
2014-Dec-11 04:27N 38°01' E 024°01'0 0.0
2014-Dec-11 03:33N 38°01' E 024°01'0 0.0
2014-Dec-11 02:33N 38°01' E 024°01'0 0.0
2014-Dec-11 01:33N 38°01' E 024°01'0 0.0
2014-Dec-11 00:33N 38°01' E 024°01'0 0.0
2014-Dec-10 23:28N 38°01' E 024°01'0 0.0
2014-Dec-10 22:17N 38°01' E 024°01'0 0.0
2014-Dec-10 21:32N 38°01' E 024°01'0 0.0
2014-Dec-10 20:31N 38°01' E 024°01'0 0.0
2014-Dec-10 19:26N 38°01' E 024°01'0 0.0
2014-Dec-10 18:09N 38°01' E 024°01'0 0.0
2014-Dec-10 17:16N 38°01' E 024°01'0 0.6
2014-Dec-10 16:31N 38°01' E 024°01'2018.5
2014-Dec-10 15:28N 37°55' E 024°25'2613.2
2014-Dec-10 13:31N 37°43' E 024°53'1717.1
2014-Dec-10 12:33N 37°32' E 025°09'9 9.2
2014-Dec-10 11:33N 37°28' E 025°19'0 0.0
2014-Dec-10 10:33N 37°28' E 025°19'1312.5
2014-Dec-10 09:33N 37°34' E 025°05'4815.8
2014-Dec-10 06:32N 37°58' E 024°14'9 0.7
2014-Dec-09 16:23N 38°01' E 024°02'1918.5
2014-Dec-09 15:24N 37°56' E 024°25'  
Track history (hours):
 
Tides and Currents Weather Stations Pressure Air Temp Water Temp Dewpoint Dewpoint Depression Visibility Wind Speed Wind Dir Waves Ship Positions

Superferry II

Last reported at 2014-Dec-19 15:23 UTC. Time now 2014-Dec-20 08:45 UTC.
Position N 37°56' E 024°25'.

Length 122 m; draft 4.7 m.

Type: Passenger vessel. MMSI: 237001000.

Date/timePositionNaut miles runAvg speedWind from/ knotsBaromVisibWave heightAir tempDewpointWater temp
2014-Dec-19 15:23N 37°56' E 024°25'2513.7
2014-Dec-19 13:33N 37°44' E 024°52'1817.6
2014-Dec-19 12:33N 37°32' E 025°09'9 9.1
2014-Dec-19 11:33N 37°28' E 025°19'0 0.0
2014-Dec-19 10:33N 37°28' E 025°19'1010.0
2014-Dec-19 09:33N 37°32' E 025°08'42 2.3
2014-Dec-18 15:25N 37°56' E 024°25'2513.5
2014-Dec-18 13:33N 37°44' E 024°52'1816.9
2014-Dec-18 12:31N 37°32' E 025°09'9 9.2
2014-Dec-18 11:31N 37°28' E 025°19'0 0.0
2014-Dec-18 10:32N 37°28' E 025°19'10 9.8
2014-Dec-18 09:33N 37°32' E 025°08'39 2.1
2014-Dec-17 15:30N 37°54' E 024°29'2412.2
2014-Dec-17 13:32N 37°42' E 024°54'1515.6
2014-Dec-17 12:33N 37°32' E 025°09'9 9.1
2014-Dec-17 11:33N 37°28' E 025°19'1 0.5
2014-Dec-17 10:33N 37°28' E 025°19'1313.0
2014-Dec-17 09:33N 37°35' E 025°04'38 2.1
2014-Dec-16 15:23N 37°56' E 024°25'2413.3
2014-Dec-16 13:33N 37°44' E 024°52'1818.2
2014-Dec-16 12:34N 37°32' E 025°09'9 9.1
2014-Dec-16 11:33N 37°28' E 025°19'0 0.0
2014-Dec-16 10:33N 37°28' E 025°19'1313.1
2014-Dec-16 09:33N 37°34' E 025°05'5115.7
2014-Dec-16 06:17N 37°60' E 024°08'6 0.9
2014-Dec-15 23:05N 38°01' E 024°01'1 0.1
2014-Dec-15 16:24N 38°01' E 024°02'1618.7
2014-Dec-15 15:33N 37°56' E 024°21'2013.5
2014-Dec-15 14:06N 37°51' E 024°45'1119.0
2014-Dec-15 13:30N 37°42' E 024°54'1516.2
2014-Dec-15 12:33N 37°32' E 025°09'9 9.1
2014-Dec-15 11:33N 37°28' E 025°19'0 0.0
2014-Dec-15 10:33N 37°28' E 025°19'1110.5
2014-Dec-15 09:32N 37°33' E 025°07'4816.2
2014-Dec-15 06:33N 37°58' E 024°15'12 1.2
2014-Dec-14 20:26N 38°01' E 024°01'0 0.0
2014-Dec-14 19:21N 38°01' E 024°01'2 0.6
2014-Dec-14 16:26N 38°01' E 024°03'1818.4
2014-Dec-14 15:26N 37°55' E 024°25'2513.2
2014-Dec-14 13:33N 37°44' E 024°52'1817.6
2014-Dec-14 12:33N 37°32' E 025°09'9 9.1
2014-Dec-14 11:33N 37°28' E 025°19'0 0.0
2014-Dec-14 10:33N 37°28' E 025°19'1010.4
2014-Dec-14 09:33N 37°32' E 025°08'5216.5
2014-Dec-14 06:22N 37°59' E 024°10'6 0.5
2014-Dec-13 16:23N 38°01' E 024°02'1818.6
2014-Dec-13 15:23N 37°56' E 024°25'2813.9
2014-Dec-13 13:22N 37°41' E 024°55'1417.4
2014-Dec-13 12:33N 37°32' E 025°09'9 9.1
2014-Dec-13 11:33N 37°28' E 025°19'0 0.4
2014-Dec-13 10:31N 37°28' E 025°19'1212.5
2014-Dec-13 09:34N 37°34' E 025°06'4715.7
2014-Dec-13 06:32N 37°58' E 024°14'10 0.7
2014-Dec-12 16:28N 38°01' E 024°02'1817.9
2014-Dec-12 15:27N 37°56' E 024°25'2714.3
2014-Dec-12 13:33N 37°42' E 024°54'1515.4
2014-Dec-12 12:33N 37°32' E 025°09'9 9.1
2014-Dec-12 11:33N 37°28' E 025°19'0 0.0
2014-Dec-12 10:33N 37°28' E 025°19'1212.2
2014-Dec-12 09:33N 37°33' E 025°06'4715.6
2014-Dec-12 06:32N 37°58' E 024°15'10 0.7
2014-Dec-11 16:33N 38°01' E 024°03'1818.3
2014-Dec-11 15:33N 37°55' E 024°26'2613.1
2014-Dec-11 13:33N 37°42' E 024°54'1515.7
2014-Dec-11 12:34N 37°32' E 025°09'9 9.1
2014-Dec-11 11:33N 37°28' E 025°19'0 0.0
2014-Dec-11 10:33N 37°28' E 025°19'1211.7
2014-Dec-11 09:33N 37°33' E 025°06'3415.3
2014-Dec-11 07:19N 37°54' E 024°32'1418.8
2014-Dec-11 06:33N 37°58' E 024°15'1111.0
2014-Dec-11 05:31N 38°01' E 024°01'0 0.0
2014-Dec-11 04:27N 38°01' E 024°01'0 0.0
2014-Dec-11 03:33N 38°01' E 024°01'0 0.0
2014-Dec-11 02:33N 38°01' E 024°01'0 0.0
2014-Dec-11 01:33N 38°01' E 024°01'0 0.0
2014-Dec-11 00:33N 38°01' E 024°01'0 0.0
2014-Dec-10 23:28N 38°01' E 024°01'0 0.0
2014-Dec-10 22:17N 38°01' E 024°01'0 0.0
2014-Dec-10 21:32N 38°01' E 024°01'0 0.0
2014-Dec-10 20:31N 38°01' E 024°01'0 0.0
2014-Dec-10 19:26N 38°01' E 024°01'0 0.0
2014-Dec-10 18:09N 38°01' E 024°01'0 0.0
2014-Dec-10 17:16N 38°01' E 024°01'0 0.6
2014-Dec-10 16:31N 38°01' E 024°01'2018.5
2014-Dec-10 15:28N 37°55' E 024°25'2613.2
2014-Dec-10 13:31N 37°43' E 024°53'1717.1
2014-Dec-10 12:33N 37°32' E 025°09'9 9.2
2014-Dec-10 11:33N 37°28' E 025°19'0 0.0
2014-Dec-10 10:33N 37°28' E 025°19'1312.5
2014-Dec-10 09:33N 37°34' E 025°05'4815.8
2014-Dec-10 06:32N 37°58' E 024°14'9 0.7
2014-Dec-09 16:23N 38°01' E 024°02'1918.5
2014-Dec-09 15:24N 37°56' E 024°25'  

Dump ship's entire track history